Time;durP1;ratioP1;P1;durP2;ratioP2;P2;SDS_P1;SDS_P2;PMS_P1;PMS_P2;Temp;Humidity;BMP_temperature;BMP_pressure;BME280_temperature;BME280_humidity;BME280_pressure;Samples;Min_cycle;Max_cycle;Signal;HPM_P1;HPM_P2
2023/01/07 00:00:18;;;;;;;;;;;;;;;9.82;92.42;100484.41;4899591;29;20076;-80
2023/01/07 00:02:44;;;;;;;;;;;;;;;9.84;92.50;100485.13;4917388;29;19927;-81
2023/01/07 00:05:11;;;;;;;;;;;;;;;9.83;91.47;100475.50;4904624;29;20014;-85
2023/01/07 00:07:37;;;;;;;;;;;;;;;9.83;92.06;100479.94;4906406;29;19927;-81
2023/01/07 00:10:04;;;;;;;;;;;;;;;9.84;91.83;100476.34;4920858;29;20387;-81
2023/01/07 00:12:31;;;;;;;;;;;;;;;9.80;91.89;100481.03;4894988;29;19927;-81
2023/01/07 00:14:57;;;;;;;;;;;;;;;9.83;92.01;100474.66;4920121;29;19930;-81
2023/01/07 00:17:24;;;;;;;;;;;;;;;9.82;92.09;100468.50;4909311;29;19991;-81
2023/01/07 00:19:50;;;;;;;;;;;;;;;9.84;92.26;100471.03;4889782;29;19924;-81
2023/01/07 00:22:17;;;;;;;;;;;;;;;9.83;92.02;100467.53;4910852;29;19994;-81
2023/01/07 00:24:44;;;;;;;;;;;;;;;9.85;90.93;100470.91;4902979;29;19931;-83
2023/01/07 00:27:10;;;;;;;;;;;;;;;9.88;90.65;100459.22;4857846;29;19923;-80
2023/01/07 00:29:37;;;;;;;;;;;;;;;9.83;91.48;100456.09;4914406;29;19929;-81
2023/01/07 00:32:04;;;;;;;;;;;;;;;9.82;91.98;100457.03;4878415;29;19923;-81
2023/01/07 00:34:30;;;;;;;;;;;;;;;9.82;92.16;100451.72;4901373;29;19970;-81
2023/01/07 00:37:48;;;;;;;;;;;;;;;9.81;91.98;100458.00;4890496;29;20375;-81
2023/01/07 00:39:44;;;;;;;;;;;;;;;9.77;92.56;100452.94;4879813;29;20371;-81
2023/01/07 00:44:56;;;;;;;;;;;;;;;9.75;93.26;100443.41;4844404;29;19928;-86
2023/01/07 00:47:23;;;;;;;;;;;;;;;9.75;93.88;100446.06;4887188;29;19946;-81
2023/01/07 00:49:50;;;;;;;;;;;;;;;9.72;94.47;100443.63;4876403;29;19974;-81
2023/01/07 00:52:16;;;;;;;;;;;;;;;9.72;94.48;100433.88;4887419;29;19929;-81
2023/01/07 00:54:43;;;;;;;;;;;;;;;9.70;94.69;100435.78;4890596;29;19923;-81
2023/01/07 00:57:11;;;;;;;;;;;;;;;9.75;94.12;100435.44;4895160;29;20378;-81
2023/01/07 00:59:38;;;;;;;;;;;;;;;9.75;93.72;100430.13;4875969;29;20343;-84
2023/01/07 01:02:05;;;;;;;;;;;;;;;9.75;93.17;100428.31;4889745;29;19927;-80
2023/01/07 01:04:32;;;;;;;;;;;;;;;9.76;93.15;100424.69;4860419;29;20386;-81
2023/01/07 01:06:58;;;;;;;;;;;;;;;9.79;92.26;100423.63;4892175;29;20387;-81
2023/01/07 01:09:25;;;;;;;;;;;;;;;9.82;91.02;100426.06;4886192;29;20029;-81
2023/01/07 01:11:52;;;;;;;;;;;;;;;9.79;90.43;100423.63;4888694;29;19929;-81
2023/01/07 01:14:18;;;;;;;;;;;;;;;9.78;90.47;100422.78;4867108;29;19930;-81
2023/01/07 01:16:45;;;;;;;;;;;;;;;9.80;90.52;100414.72;4879590;29;19927;-82
2023/01/07 01:19:12;;;;;;;;;;;;;;;9.78;90.57;100412.16;4888907;29;19962;-81
2023/01/07 01:21:41;;;;;;;;;;;;;;;9.81;90.38;100412.91;4876988;29;19934;-81
2023/01/07 01:24:08;;;;;;;;;;;;;;;9.76;90.17;100423.84;4906413;29;19930;-81
2023/01/07 01:26:35;;;;;;;;;;;;;;;9.72;90.42;100425.91;4877988;29;19930;-80
2023/01/07 01:29:01;;;;;;;;;;;;;;;9.73;90.27;100424.94;4890249;29;19931;-81
2023/01/07 01:31:30;;;;;;;;;;;;;;;9.73;91.07;100419.63;4877685;29;19929;-81
2023/01/07 01:33:58;;;;;;;;;;;;;;;9.71;91.20;100421.56;4905330;29;19923;-81
2023/01/07 01:36:25;;;;;;;;;;;;;;;9.77;90.67;100422.91;4874132;29;19923;-81
2023/01/07 01:38:56;;;;;;;;;;;;;;;9.74;90.91;100416.03;4878871;29;19967;-82
2023/01/07 01:41:23;;;;;;;;;;;;;;;9.77;90.69;100420.28;4904594;29;20060;-81
2023/01/07 01:43:52;;;;;;;;;;;;;;;9.72;91.35;100417.97;4890009;29;19930;-81
2023/01/07 01:46:38;;;;;;;;;;;;;;;9.76;91.93;100422.03;4892373;29;19923;-81
2023/01/07 01:49:13;;;;;;;;;;;;;;;9.71;92.20;100418.06;4850520;29;19979;-82
2023/01/07 01:51:40;;;;;;;;;;;;;;;9.73;92.37;100418.78;4873645;29;20380;-81
2023/01/07 01:54:08;;;;;;;;;;;;;;;9.73;91.71;100416.16;4901787;29;20350;-81
2023/01/07 01:56:37;;;;;;;;;;;;;;;9.74;92.06;100405.44;4876334;29;19931;-83
2023/01/07 01:59:05;;;;;;;;;;;;;;;9.70;90.63;100401.31;4886883;29;19969;-81
2023/01/07 02:01:34;;;;;;;;;;;;;;;9.75;90.46;100407.09;4855589;29;20351;-81
2023/01/07 02:04:04;;;;;;;;;;;;;;;9.73;90.30;100403.72;4916471;29;19923;-81
2023/01/07 02:06:31;;;;;;;;;;;;;;;9.76;90.46;100397.34;4886456;29;20272;-81
2023/01/07 02:08:58;;;;;;;;;;;;;;;9.77;90.31;100401.69;4888760;29;19930;-82
2023/01/07 02:11:49;;;;;;;;;;;;;;;9.76;90.35;100395.53;4890149;29;19935;-81
2023/01/07 02:14:20;;;;;;;;;;;;;;;9.69;92.09;100393.47;4844221;29;19943;-81
2023/01/07 02:16:56;;;;;;;;;;;;;;;9.70;92.32;100398.66;4902517;29;20522;-80
2023/01/07 02:19:49;;;;;;;;;;;;;;;9.68;91.68;100397.09;4892046;29;20389;-81
2023/01/07 02:22:36;;;;;;;;;;;;;;;9.68;92.64;100395.28;4868148;29;19923;-81
2023/01/07 02:25:23;;;;;;;;;;;;;;;9.69;92.04;100393.47;4876161;29;19929;-80
2023/01/07 02:27:59;;;;;;;;;;;;;;;9.70;92.12;100389.88;4905300;29;19923;-82
2023/01/07 02:30:32;;;;;;;;;;;;;;;9.65;92.94;100384.06;4904017;29;19998;-81
2023/01/07 02:32:59;;;;;;;;;;;;;;;9.62;93.32;100381.66;4886193;29;20458;-80
2023/01/07 02:35:29;;;;;;;;;;;;;;;9.64;92.86;100375.28;4903273;29;19962;-81
2023/01/07 02:38:14;;;;;;;;;;;;;;;9.64;93.29;100367.31;4903972;29;19975;-81
2023/01/07 02:41:04;;;;;;;;;;;;;;;9.64;93.28;100371.75;4885873;29;20038;-83
2023/01/07 02:43:34;;;;;;;;;;;;;;;9.62;92.95;100366.56;4891657;29;20122;-81
2023/01/07 02:46:02;;;;;;;;;;;;;;;9.64;93.00;100361.13;4867514;29;19928;-81
2023/01/07 02:48:29;;;;;;;;;;;;;;;9.61;93.63;100361.38;4871679;29;19924;-81
2023/01/07 02:50:56;;;;;;;;;;;;;;;9.58;93.07;100362.47;4869631;29;19923;-81
2023/01/07 02:53:22;;;;;;;;;;;;;;;9.58;93.52;100357.16;4873690;29;20018;-81
2023/01/07 02:56:08;;;;;;;;;;;;;;;9.60;93.15;100352.59;4867730;29;19966;-81
2023/01/07 02:58:39;;;;;;;;;;;;;;;9.63;92.01;100351.50;4862462;29;20402;-81
2023/01/07 03:01:08;;;;;;;;;;;;;;;9.65;91.61;100346.94;4840489;29;19931;-81
2023/01/07 03:03:42;;;;;;;;;;;;;;;9.64;91.29;100351.41;4877558;29;19928;-81
2023/01/07 03:06:20;;;;;;;;;;;;;;;9.65;90.79;100350.44;4855781;29;19931;-81
2023/01/07 03:08:49;;;;;;;;;;;;;;;9.61;91.40;100342.81;4870579;29;19982;-81
2023/01/07 03:11:17;;;;;;;;;;;;;;;9.66;91.42;100341.50;4870543;29;20380;-82
2023/01/07 03:14:07;;;;;;;;;;;;;;;9.67;91.59;100329.94;4867822;29;19923;-82
2023/01/07 03:16:38;;;;;;;;;;;;;;;9.68;91.36;100328.97;4851726;29;20022;-81
2023/01/07 03:19:17;;;;;;;;;;;;;;;9.70;90.87;100326.22;4846626;29;19937;-82
2023/01/07 03:21:45;;;;;;;;;;;;;;;9.63;90.93;100325.00;4893885;29;20355;-81
2023/01/07 03:24:12;;;;;;;;;;;;;;;9.64;91.77;100326.66;4873248;29;19928;-81
2023/01/07 03:26:39;;;;;;;;;;;;;;;9.55;93.00;100329.06;4903089;29;20339;-82
2023/01/07 03:29:06;;;;;;;;;;;;;;;9.59;93.27;100324.38;4900383;29;19962;-81
2023/01/07 03:31:33;;;;;;;;;;;;;;;9.55;93.61;100323.78;4874443;29;19927;-81
2023/01/07 03:34:04;;;;;;;;;;;;;;;9.54;93.81;100322.09;4891592;29;19954;-81
2023/01/07 03:36:33;;;;;;;;;;;;;;;9.55;93.94;100322.94;4865963;29;20426;-81
2023/01/07 03:39:00;;;;;;;;;;;;;;;9.54;93.97;100318.56;4888024;29;19967;-81
2023/01/07 03:44:12;;;;;;;;;;;;;;;9.50;94.17;100314.47;4853670;29;19923;-81
2023/01/07 03:46:39;;;;;;;;;;;;;;;9.50;94.21;100309.19;4884575;29;20395;-82
2023/01/07 03:49:06;;;;;;;;;;;;;;;9.47;94.49;100306.78;4877514;29;19931;-81
2023/01/07 03:51:35;;;;;;;;;;;;;;;9.47;94.36;100307.59;4858188;29;20022;-81
2023/01/07 03:54:02;;;;;;;;;;;;;;;9.44;94.72;100307.84;4901735;29;19927;-81
2023/01/07 03:56:28;;;;;;;;;;;;;;;9.46;94.28;100297.13;4890379;29;19926;-80
2023/01/07 03:58:55;;;;;;;;;;;;;;;9.47;94.02;100298.81;4887003;29;19934;-81
2023/01/07 04:01:22;;;;;;;;;;;;;;;9.48;93.98;100295.19;4883482;29;19990;-82
2023/01/07 04:03:49;;;;;;;;;;;;;;;9.47;94.57;100297.00;4909405;29;20017;-81
2023/01/07 04:06:15;;;;;;;;;;;;;;;9.45;94.48;100288.31;4886504;29;19979;-81
2023/01/07 04:08:42;;;;;;;;;;;;;;;9.40;94.89;100289.63;4887607;29;19935;-83
2023/01/07 04:11:09;;;;;;;;;;;;;;;9.39;95.20;100290.59;4874491;29;19935;-81
2023/01/07 04:13:37;;;;;;;;;;;;;;;9.39;95.15;100287.94;4874746;29;20389;-81
2023/01/07 04:16:03;;;;;;;;;;;;;;;9.41;94.96;100286.00;4900089;29;19938;-81
2023/01/07 04:18:30;;;;;;;;;;;;;;;9.42;95.16;100285.06;4886220;29;19922;-81
2023/01/07 04:20:57;;;;;;;;;;;;;;;9.42;94.94;100277.13;4904944;29;19930;-80
2023/01/07 04:23:23;;;;;;;;;;;;;;;9.39;95.00;100269.38;4882101;29;19970;-81
2023/01/07 04:25:52;;;;;;;;;;;;;;;9.40;94.88;100276.38;4902298;29;20442;-81
2023/01/07 04:28:21;;;;;;;;;;;;;;;9.43;94.86;100274.34;4910847;29;19931;-80
2023/01/07 04:30:48;;;;;;;;;;;;;;;9.44;94.50;100269.88;4900475;29;19923;-81
2023/01/07 04:33:16;;;;;;;;;;;;;;;9.37;94.35;100266.03;4871758;29;19927;-82
2023/01/07 04:35:44;;;;;;;;;;;;;;;9.40;94.73;100263.97;4905824;29;20049;-81
2023/01/07 04:38:11;;;;;;;;;;;;;;;9.39;95.05;100270.25;4874324;29;19930;-81
2023/01/07 04:40:38;;;;;;;;;;;;;;;9.39;94.88;100262.28;4890498;29;19935;-81
2023/01/07 04:43:04;;;;;;;;;;;;;;;9.42;94.53;100258.56;4870291;29;19923;-81
2023/01/07 04:45:31;;;;;;;;;;;;;;;9.45;94.17;100258.31;4868105;29;19923;-81
2023/01/07 04:47:59;;;;;;;;;;;;;;;9.43;94.18;100253.13;4901673;29;19923;-81
2023/01/07 04:50:27;;;;;;;;;;;;;;;9.47;94.03;100259.06;4878575;29;19927;-81
2023/01/07 04:52:54;;;;;;;;;;;;;;;9.46;94.14;100260.84;4871874;29;19982;-81
2023/01/07 04:55:21;;;;;;;;;;;;;;;9.45;94.31;100253.03;4880089;29;19933;-82
2023/01/07 04:57:48;;;;;;;;;;;;;;;9.41;94.31;100259.50;4919950;29;20386;-85
2023/01/07 05:00:16;;;;;;;;;;;;;;;9.40;94.23;100242.78;4901653;29;20680;-81
2023/01/07 05:02:46;;;;;;;;;;;;;;;9.44;94.14;100248.66;4903673;29;20335;-81
2023/01/07 05:05:13;;;;;;;;;;;;;;;9.45;94.10;100245.06;4901663;29;19958;-81
2023/01/07 05:07:39;;;;;;;;;;;;;;;9.42;94.20;100237.38;4874253;29;20944;-81
2023/01/07 05:10:07;;;;;;;;;;;;;;;9.42;94.34;100240.00;4915276;29;20447;-81
2023/01/07 05:12:35;;;;;;;;;;;;;;;9.40;94.68;100232.16;4891474;29;19931;-81
2023/01/07 05:15:03;;;;;;;;;;;;;;;9.41;94.57;100228.53;4876913;29;19922;-81
2023/01/07 05:17:31;;;;;;;;;;;;;;;9.41;94.25;100230.34;4892218;29;19930;-85
2023/01/07 05:19:59;;;;;;;;;;;;;;;9.41;94.48;100233.84;4890546;29;20386;-81
2023/01/07 05:22:25;;;;;;;;;;;;;;;9.32;94.92;100224.81;4917513;29;20037;-81
2023/01/07 05:24:53;;;;;;;;;;;;;;;9.33;94.91;100228.28;4871610;29;19927;-81
2023/01/07 05:27:20;;;;;;;;;;;;;;;9.37;94.75;100223.63;4903119;29;20002;-81
2023/01/07 05:29:46;;;;;;;;;;;;;;;9.34;94.99;100224.69;4891201;29;19923;-81
2023/01/07 05:32:13;;;;;;;;;;;;;;;9.34;94.96;100224.69;4909937;29;20591;-85
2023/01/07 05:34:40;;;;;;;;;;;;;;;9.37;95.04;100213.03;4892131;29;19931;-82
2023/01/07 05:37:06;;;;;;;;;;;;;;;9.37;94.76;100218.31;4909342;29;20353;-80
2023/01/07 05:39:34;;;;;;;;;;;;;;;9.30;94.70;100213.47;4887719;29;21430;-81
2023/01/07 05:42:03;;;;;;;;;;;;;;;9.29;95.20;100208.31;4891630;29;19949;-81
2023/01/07 05:44:29;;;;;;;;;;;;;;;9.29;95.02;100203.00;4889050;29;19927;-81
2023/01/07 05:46:56;;;;;;;;;;;;;;;9.26;95.50;100201.44;4916905;29;19923;-80
2023/01/07 05:49:22;;;;;;;;;;;;;;;9.27;95.52;100199.63;4917501;29;19923;-81
2023/01/07 05:51:49;;;;;;;;;;;;;;;9.25;95.23;100207.69;4918774;29;19927;-81
2023/01/07 05:54:15;;;;;;;;;;;;;;;9.26;94.83;100195.28;4891583;29;19939;-83
2023/01/07 05:56:42;;;;;;;;;;;;;;;9.25;95.07;100190.94;4889933;29;19923;-80
2023/01/07 05:59:09;;;;;;;;;;;;;;;9.26;95.39;100193.50;4876171;29;19987;-81
2023/01/07 06:01:35;;;;;;;;;;;;;;;9.25;95.34;100196.25;4876668;29;20518;-81
2023/01/07 06:04:02;;;;;;;;;;;;;;;9.23;95.75;100193.72;4886147;29;20428;-82
2023/01/07 06:06:28;;;;;;;;;;;;;;;9.19;95.92;100189.63;4892086;29;19991;-81
2023/01/07 06:08:55;;;;;;;;;;;;;;;9.26;95.95;100189.97;4874975;29;19927;-81
2023/01/07 06:11:21;;;;;;;;;;;;;;;9.26;95.20;100185.53;4918399;29;20321;-81
2023/01/07 06:13:48;;;;;;;;;;;;;;;9.21;95.46;100174.47;4916946;29;19931;-85
2023/01/07 06:16:15;;;;;;;;;;;;;;;9.21;95.75;100184.19;4907714;29;19929;-81
2023/01/07 06:18:41;;;;;;;;;;;;;;;9.27;95.46;100179.28;4890366;29;19923;-81
2023/01/07 06:21:08;;;;;;;;;;;;;;;9.20;95.80;100180.69;4877330;29;19934;-81
2023/01/07 06:23:36;;;;;;;;;;;;;;;9.19;95.60;100176.38;4920674;29;19929;-81
2023/01/07 06:26:02;;;;;;;;;;;;;;;9.16;96.20;100181.91;4911099;29;19922;-80
2023/01/07 06:28:29;;;;;;;;;;;;;;;9.17;96.05;100173.00;4876011;29;19967;-81
2023/01/07 06:30:55;;;;;;;;;;;;;;;9.17;96.02;100178.28;4911680;29;20700;-81
2023/01/07 06:33:22;;;;;;;;;;;;;;;9.14;96.25;100167.94;4916519;29;19923;-82
2023/01/07 06:35:49;;;;;;;;;;;;;;;9.15;95.98;100174.91;4904032;29;19994;-81
2023/01/07 06:38:15;;;;;;;;;;;;;;;9.10;95.84;100167.31;4922481;29;19931;-81
2023/01/07 06:40:43;;;;;;;;;;;;;;;9.15;95.93;100166.97;4890835;29;20278;-81
2023/01/07 06:43:10;;;;;;;;;;;;;;;9.18;95.98;100172.03;4916192;29;19923;-81
2023/01/07 06:45:36;;;;;;;;;;;;;;;9.21;95.87;100163.00;4905437;29;19946;-81
2023/01/07 06:48:05;;;;;;;;;;;;;;;9.17;95.92;100154.44;4888631;29;19931;-81
2023/01/07 06:50:32;;;;;;;;;;;;;;;9.16;96.06;100154.56;4875432;29;19934;-81
2023/01/07 06:52:58;;;;;;;;;;;;;;;9.17;96.12;100149.16;4903805;29;19982;-81
2023/01/07 06:55:25;;;;;;;;;;;;;;;9.17;96.13;100151.81;4878158;29;19927;-82
2023/01/07 06:57:51;;;;;;;;;;;;;;;9.16;96.21;100151.91;4873959;29;19930;-81
2023/01/07 07:00:18;;;;;;;;;;;;;;;9.16;95.83;100150.13;4889246;29;19931;-81
2023/01/07 07:02:45;;;;;;;;;;;;;;;9.17;96.09;100148.31;4889792;29;20295;-83
2023/01/07 07:05:11;;;;;;;;;;;;;;;9.18;96.00;100142.88;4889045;29;19923;-81
2023/01/07 07:07:38;;;;;;;;;;;;;;;9.21;95.64;100137.38;4889708;29;20017;-82
2023/01/07 07:10:06;;;;;;;;;;;;;;;9.20;95.65;100140.97;4896329;29;19970;-81
2023/01/07 07:12:33;;;;;;;;;;;;;;;9.14;95.57;100130.84;4863649;29;19933;-82
2023/01/07 07:15:00;;;;;;;;;;;;;;;9.17;95.39;100135.06;4903189;29;20379;-82
2023/01/07 07:17:26;;;;;;;;;;;;;;;9.23;95.42;100132.75;4899779;29;19938;-82
2023/01/07 07:19:53;;;;;;;;;;;;;;;9.20;95.57;100127.72;4919390;29;19941;-81
2023/01/07 07:22:20;;;;;;;;;;;;;;;9.18;95.91;100120.84;4913744;29;19927;-81
2023/01/07 07:24:46;;;;;;;;;;;;;;;9.18;96.09;100128.78;4904812;29;20390;-80
2023/01/07 07:27:13;;;;;;;;;;;;;;;9.16;95.71;100125.41;4886123;29;20303;-80
2023/01/07 07:29:39;;;;;;;;;;;;;;;9.15;95.97;100124.56;4912605;29;19927;-81
2023/01/07 07:32:07;;;;;;;;;;;;;;;9.12;96.39;100122.16;4905648;29;20002;-81
2023/01/07 07:34:34;;;;;;;;;;;;;;;9.15;96.61;100123.75;4871855;29;19951;-81
2023/01/07 07:37:01;;;;;;;;;;;;;;;9.12;96.56;100117.72;4903156;29;20299;-82
2023/01/07 07:39:28;;;;;;;;;;;;;;;9.09;96.63;100115.31;4915295;29;19923;-81
2023/01/07 07:41:54;;;;;;;;;;;;;;;9.10;96.50;100116.97;4903832;29;19923;-81
2023/01/07 07:44:21;;;;;;;;;;;;;;;9.11;95.87;100110.75;4888244;29;19935;-82
2023/01/07 07:46:48;;;;;;;;;;;;;;;9.08;96.40;100110.13;4868944;29;20009;-81
2023/01/07 07:49:15;;;;;;;;;;;;;;;9.04;96.84;100103.38;4901155;29;20006;-81
2023/01/07 07:51:41;;;;;;;;;;;;;;;9.09;96.53;100099.41;4890111;29;20458;-82
2023/01/07 07:54:08;;;;;;;;;;;;;;;9.11;96.66;100094.00;4873417;29;19923;-81
2023/01/07 07:56:34;;;;;;;;;;;;;;;9.14;95.98;100099.06;4874835;29;19935;-81
2023/01/07 07:59:01;;;;;;;;;;;;;;;9.15;96.07;100094.59;4919691;29;19931;-81
2023/01/07 08:01:27;;;;;;;;;;;;;;;9.15;96.17;100097.25;4868344;29;19924;-81
2023/01/07 08:03:54;;;;;;;;;;;;;;;9.11;96.15;100094.84;4903823;29;19924;-80
2023/01/07 08:06:21;;;;;;;;;;;;;;;9.18;95.64;100094.34;4916622;29;19931;-80
2023/01/07 08:08:47;;;;;;;;;;;;;;;9.11;95.96;100094.84;4893541;29;19934;-80
2023/01/07 08:11:14;;;;;;;;;;;;;;;9.12;96.11;100098.31;4918621;29;19929;-81
2023/01/07 08:13:40;;;;;;;;;;;;;;;9.15;96.17;100099.91;4917890;29;19923;-80
2023/01/07 08:16:07;;;;;;;;;;;;;;;9.13;95.95;100086.75;4917883;29;19927;-80
2023/01/07 08:18:34;;;;;;;;;;;;;;;9.04;96.45;100080.38;4899516;29;19973;-81
2023/01/07 08:21:01;;;;;;;;;;;;;;;9.10;96.84;100084.34;4902147;29;19939;-79
2023/01/07 08:23:28;;;;;;;;;;;;;;;9.14;96.59;100085.81;4903975;29;19938;-79
2023/01/07 08:25:57;;;;;;;;;;;;;;;9.18;96.41;100081.94;4910978;29;20335;-79
2023/01/07 08:28:24;;;;;;;;;;;;;;;9.14;97.09;100085.81;4902158;29;19927;-79
2023/01/07 08:30:50;;;;;;;;;;;;;;;9.15;97.52;100078.69;4891496;29;20025;-80
2023/01/07 08:33:17;;;;;;;;;;;;;;;9.19;96.48;100074.84;4887460;29;19931;-80
2023/01/07 08:35:44;;;;;;;;;;;;;;;9.21;96.39;100076.41;4886322;29;19930;-80
2023/01/07 08:38:10;;;;;;;;;;;;;;;9.20;96.25;100077.38;4903509;29;19930;-80
2023/01/07 08:40:37;;;;;;;;;;;;;;;9.17;96.23;100077.63;4898925;29;19933;-79
2023/01/07 08:43:06;;;;;;;;;;;;;;;9.16;96.29;100075.94;4870488;29;19931;-79
2023/01/07 08:45:33;;;;;;;;;;;;;;;9.20;96.27;100077.38;4882153;29;20418;-79
2023/01/07 08:48:01;;;;;;;;;;;;;;;9.20;96.34;100073.88;4866931;29;19927;-78
2023/01/07 08:50:28;;;;;;;;;;;;;;;9.17;96.29;100072.31;4911685;29;20363;-78
2023/01/07 08:52:55;;;;;;;;;;;;;;;9.24;96.21;100067.38;4910010;29;20291;-78
2023/01/07 08:55:21;;;;;;;;;;;;;;;9.26;96.42;100062.78;4889061;29;19922;-78
2023/01/07 08:57:48;;;;;;;;;;;;;;;9.25;96.31;100072.53;4920908;29;20374;-78
2023/01/07 09:00:15;;;;;;;;;;;;;;;9.23;97.18;100066.53;4924186;29;20328;-78
2023/01/07 09:02:42;;;;;;;;;;;;;;;9.22;97.12;100070.16;4888027;29;20291;-78
2023/01/07 09:05:09;;;;;;;;;;;;;;;9.24;96.78;100073.53;4904569;29;20378;-78
2023/01/07 09:07:35;;;;;;;;;;;;;;;9.24;97.28;100065.56;4891610;29;19927;-78
2023/01/07 09:10:02;;;;;;;;;;;;;;;9.31;96.98;100063.25;4905756;29;20287;-80
2023/01/07 09:12:28;;;;;;;;;;;;;;;9.37;96.25;100061.97;4918409;29;19923;-78
2023/01/07 09:14:55;;;;;;;;;;;;;;;9.41;96.72;100061.56;4919980;29;19994;-79
2023/01/07 09:17:21;;;;;;;;;;;;;;;9.43;96.75;100056.97;4893764;29;19923;-80
2023/01/07 09:19:49;;;;;;;;;;;;;;;9.47;96.41;100050.50;4905824;29;19923;-80
2023/01/07 09:22:19;;;;;;;;;;;;;;;9.50;95.94;100054.69;4915103;29;19933;-80
2023/01/07 09:24:45;;;;;;;;;;;;;;;9.55;95.62;100052.53;4906281;29;19923;-80
2023/01/07 09:27:15;;;;;;;;;;;;;;;9.59;95.16;100053.09;4900399;29;19930;-80
2023/01/07 09:29:42;;;;;;;;;;;;;;;9.61;94.32;100051.16;4879324;29;19975;-80
2023/01/07 09:32:09;;;;;;;;;;;;;;;9.64;93.88;100049.13;4909174;29;19933;-80
2023/01/07 09:34:37;;;;;;;;;;;;;;;9.66;93.66;100057.78;4904411;29;19942;-80
2023/01/07 09:37:03;;;;;;;;;;;;;;;9.68;93.21;100050.56;4873693;29;19930;-80
2023/01/07 09:39:30;;;;;;;;;;;;;;;9.71;92.89;100049.47;4901393;29;20991;-81
2023/01/07 09:42:03;;;;;;;;;;;;;;;9.74;92.66;100049.19;4917113;29;19979;-79
2023/01/07 09:44:30;;;;;;;;;;;;;;;9.77;92.28;100041.03;4914925;29;20367;-79
2023/01/07 09:46:56;;;;;;;;;;;;;;;9.80;91.97;100038.13;4905674;29;20359;-79
2023/01/07 09:49:24;;;;;;;;;;;;;;;9.82;91.84;100036.19;4893937;29;20375;-78
2023/01/07 09:51:53;;;;;;;;;;;;;;;9.84;91.82;100034.22;4907498;29;20381;-79
2023/01/07 09:54:22;;;;;;;;;;;;;;;9.86;91.62;100029.63;4912405;29;19923;-79
2023/01/07 09:58:32;;;;;;;10.18;5.78;;;;;;;10.12;92.43;100018.66;5021474;27;20612;-77
2023/01/07 10:01:22;;;;;;;14.35;5.72;;;;;;;10.16;90.87;100028.06;5001371;28;20039;-78
2023/01/07 10:04:18;;;;;;;7.38;4.57;;;;;;;10.20;90.20;100024.16;4999215;28;20420;-80
2023/01/07 10:06:55;;;;;;;8.65;5.60;;;;;;;10.18;89.22;100019.00;4989314;28;20048;-78
2023/01/07 10:09:25;;;;;;;10.15;5.55;;;;;;;10.23;88.83;100013.31;5012506;28;20044;-78
2023/01/07 10:12:05;;;;;;;5.88;3.53;;;;;;;10.19;87.15;100014.53;5003910;28;20046;-78
2023/01/07 10:14:58;;;;;;;12.23;5.10;;;;;;;10.16;86.37;100007.69;4967340;28;20054;-78
2023/01/07 10:17:28;;;;;;;8.50;4.90;;;;;;;10.25;87.51;99997.25;4952103;28;20123;-78
2023/01/07 10:20:07;;;;;;;8.52;4.15;;;;;;;10.23;86.53;100002.72;5026450;28;20077;-78
2023/01/07 10:22:37;;;;;;;5.95;3.70;;;;;;;10.28;86.40;99997.03;5021289;28;20410;-78
2023/01/07 10:25:14;;;;;;;6.13;3.78;;;;;;;10.25;85.77;99995.44;4996941;28;20072;-78
2023/01/07 10:27:42;;;;;;;6.28;3.95;;;;;;;10.30;86.05;99998.56;4994947;28;20099;-78
2023/01/07 10:30:24;;;;;;;6.57;3.75;;;;;;;10.26;84.72;99986.53;4970930;28;20046;-78
2023/01/07 10:33:04;;;;;;;6.75;4.60;;;;;;;10.35;87.02;99983.09;5013440;28;20049;-80
2023/01/07 10:35:32;;;;;;;5.40;3.13;;;;;;;10.41;85.81;99985.25;5005428;28;20071;-78
2023/01/07 10:38:03;;;;;;;5.03;3.10;;;;;;;10.40;84.88;99988.84;4986137;28;20505;-78
2023/01/07 10:41:04;;;;;;;3.45;2.58;;;;;;;10.36;83.68;99978.66;5000237;28;20389;-78
2023/01/07 10:43:36;;;;;;;5.28;2.60;;;;;;;10.38;83.97;99974.91;4943838;28;20042;-78
2023/01/07 10:46:27;;;;;;;3.78;2.40;;;;;;;10.36;84.10;99973.34;5016284;28;20080;-79
2023/01/07 10:48:54;;;;;;;2.83;2.00;;;;;;;10.39;83.58;99967.78;5000262;28;20429;-78
2023/01/07 10:51:36;;;;;;;4.13;2.22;;;;;;;10.35;82.68;99961.03;5017234;28;20056;-78
2023/01/07 10:54:15;;;;;;;5.07;3.10;;;;;;;10.34;82.37;99959.34;5030089;28;20046;-78
2023/01/07 10:56:47;;;;;;;3.17;2.20;;;;;;;10.39;82.38;99965.13;5016088;28;20576;-78
2023/01/07 10:59:17;;;;;;;6.95;3.40;;;;;;;10.39;82.50;99960.63;4999141;28;20074;-78
2023/01/07 11:01:48;;;;;;;6.15;2.97;;;;;;;10.40;82.00;99951.69;4998979;28;20461;-78
2023/01/07 11:04:16;;;;;;;8.90;4.45;;;;;;;10.42;82.42;99941.78;5026546;28;20074;-78
2023/01/07 11:07:25;;;;;;;5.90;3.65;;;;;;;10.32;80.25;99940.91;5001257;28;20038;-78
2023/01/07 11:09:52;;;;;;;7.72;3.65;;;;;;;10.42;82.29;99933.81;4937155;28;20046;-78
2023/01/07 11:12:44;;;;;;;6.25;3.20;;;;;;;10.35;80.33;99929.19;4958155;28;20053;-78
2023/01/07 11:15:35;;;;;;;6.55;3.05;;;;;;;10.41;81.01;99918.88;4977732;28;20473;-79
2023/01/07 11:18:28;;;;;;;4.70;2.90;;;;;;;10.35;80.40;99923.88;4999869;28;20121;-79
2023/01/07 11:20:56;;;;;;;3.53;2.00;;;;;;;10.46;81.70;99918.50;4952609;28;20050;-78
2023/01/07 11:23:39;;;;;;;4.05;2.22;;;;;;;10.36;79.41;99907.81;4971164;28;20047;-78
2023/01/07 11:26:26;;;;;;;4.18;1.90;;;;;;;10.38;79.78;99911.19;5001193;28;20045;-78
2023/01/07 11:28:59;;;;;;;3.08;1.85;;;;;;;10.46;80.84;99907.00;4978214;28;20121;-78
2023/01/07 11:31:46;;;;;;;3.92;1.85;;;;;;;10.40;80.31;99901.25;5016944;28;20100;-78
2023/01/07 11:34:36;;;;;;;4.40;1.92;;;;;;;10.38;78.36;99891.75;4986145;28;20046;-79
2023/01/07 11:37:04;;;;;;;3.55;2.03;;;;;;;10.48;80.36;99895.31;5005790;28;20038;-79
2023/01/07 11:39:35;;;;;;;5.47;2.53;;;;;;;10.47;79.72;99893.59;4993685;28;20050;-78
2023/01/07 11:42:37;;;;;;;2.67;2.03;;;;;;;10.46;79.49;99886.63;4985759;28;20089;-78
2023/01/07 11:45:19;;;;;;;5.82;2.85;;;;;;;10.39;78.42;99880.16;4985840;28;20501;-78
2023/01/07 11:48:07;;;;;;;5.28;2.50;;;;;;;10.47;79.22;99879.50;4981147;28;20046;-79
2023/01/07 11:50:39;;;;;;;7.10;2.92;;;;;;;10.46;79.36;99870.69;4997759;28;20068;-79
2023/01/07 11:53:10;;;;;;;4.70;3.00;;;;;;;10.49;80.03;99861.63;4967490;28;20405;-78
2023/01/07 11:55:36;;;;;;;4.07;2.55;;;;;;;10.52;80.03;99864.84;4972590;28;20485;-78
2023/01/07 11:58:05;;;;;;;5.47;3.00;;;;;;;10.53;79.66;99852.41;4987155;28;20053;-78
2023/01/07 12:01:07;;;;;;;4.47;2.45;;;;;;;10.49;78.43;99843.03;4978028;28;20129;-78
2023/01/07 12:03:36;;;;;;;4.15;2.47;;;;;;;10.58;79.64;99839.56;4965002;28;20053;-78
2023/01/07 12:06:22;;;;;;;5.32;3.15;;;;;;;10.53;79.07;99832.03;4988831;28;20057;-78
2023/01/07 12:09:03;;;;;;;3.33;2.53;;;;;;;10.58;79.00;99823.63;4936802;28;20046;-79
2023/01/07 12:11:33;;;;;;;4.20;2.30;;;;;;;10.61;79.12;99818.91;5010407;28;20076;-78
2023/01/07 12:14:11;;;;;;;5.20;2.65;;;;;;;10.61;78.66;99813.59;5000586;28;20057;-78
2023/01/07 12:16:37;;;;;;;5.85;3.33;;;;;;;10.72;79.41;99807.31;4983237;28;20417;-78
2023/01/07 12:19:22;;;;;;;4.45;2.88;;;;;;;10.69;78.51;99798.81;4970772;28;20042;-78
2023/01/07 12:22:09;;;;;;;5.95;2.78;;;;;;;10.64;77.82;99799.19;4962691;28;20045;-79
2023/01/07 12:24:55;;;;;;;3.92;2.38;;;;;;;10.65;78.14;99785.78;4955109;28;20493;-77
2023/01/07 12:27:36;;;;;;;4.60;2.60;;;;;;;10.75;78.82;99782.31;4967423;28;20053;-78
2023/01/07 12:30:06;;;;;;;7.25;3.45;;;;;;;10.74;78.78;99780.63;4975237;28;20044;-78
2023/01/07 12:32:48;;;;;;;7.43;3.28;;;;;;;10.76;79.19;99763.59;4995383;28;20042;-78
2023/01/07 12:35:18;;;;;;;5.70;3.15;;;;;;;10.74;79.21;99765.53;4998041;28;20045;-78
2023/01/07 12:37:52;;;;;;;6.43;3.55;;;;;;;10.73;78.72;99763.00;4998811;28;20043;-78
2023/01/07 12:40:30;;;;;;;5.82;3.53;;;;;;;10.73;78.81;99763.00;4964184;28;20043;-78
2023/01/07 12:43:12;;;;;;;7.25;4.28;;;;;;;10.74;78.67;99757.56;4960362;28;20097;-78
2023/01/07 12:45:45;;;;;;;6.32;4.00;;;;;;;10.75;78.61;99753.09;4962406;28;20046;-77
2023/01/07 12:48:20;;;;;;;6.72;4.22;;;;;;;10.76;78.76;99746.78;5000347;28;20131;-79
2023/01/07 12:50:49;;;;;;;5.28;3.05;;;;;;;10.81;79.00;99739.22;4984966;28;20038;-80